Time;durP1;ratioP1;P1;durP2;ratioP2;P2;SDS_P1;SDS_P2;PMS_P1;PMS_P2;Temp;Humidity;BMP_temperature;BMP_pressure;BME280_temperature;BME280_humidity;BME280_pressure;Samples;Min_cycle;Max_cycle;Signal;HPM_P1;HPM_P2
2022/01/01 00:01:32;;;;;;;82.32;33.33;;;10.80;99.90;;;;;;4998514;28;20076;-71
2022/01/01 00:03:57;;;;;;;84.25;34.63;;;10.80;99.90;;;;;;4998620;28;20132;-71
2022/01/01 00:06:23;;;;;;;94.18;38.38;;;10.80;99.90;;;;;;4998841;28;20081;-70
2022/01/01 00:08:49;;;;;;;89.70;40.15;;;10.80;99.90;;;;;;4998342;28;20041;-70
2022/01/01 00:11:14;;;;;;;92.75;39.95;;;10.80;99.90;;;;;;5015422;28;20038;-69
2022/01/01 00:13:40;;;;;;;92.50;43.25;;;10.80;99.90;;;;;;4998589;28;20454;-72
2022/01/01 00:16:09;;;;;;;94.68;46.65;;;10.80;99.90;;;;;;5015609;28;20406;-71
2022/01/01 00:18:39;;;;;;;96.25;38.90;;;10.80;99.90;;;;;;5015760;28;20045;-72
2022/01/01 00:21:05;;;;;;;84.35;35.65;;;10.80;99.90;;;;;;5015770;28;20107;-69
2022/01/01 00:23:32;;;;;;;70.97;32.10;;;10.80;99.90;;;;;;4981908;28;20454;-70
2022/01/01 00:25:57;;;;;;;79.78;31.63;;;10.80;99.90;;;;;;5015628;28;20057;-70
2022/01/01 00:28:23;;;;;;;83.25;31.60;;;10.80;99.90;;;;;;4998000;28;20050;-72
2022/01/01 00:30:49;;;;;;;90.57;32.03;;;10.80;99.90;;;;;;4997712;28;20046;-70
2022/01/01 00:33:14;;;;;;;80.70;30.80;;;10.80;99.90;;;;;;4998655;28;20358;-70
2022/01/01 00:35:40;;;;;;;91.32;31.10;;;10.80;99.90;;;;;;5015335;28;20050;-70
2022/01/01 00:38:07;;;;;;;81.30;30.77;;;10.80;99.90;;;;;;5015111;28;20070;-69
2022/01/01 00:40:32;;;;;;;86.05;29.52;;;10.80;99.90;;;;;;4997352;28;20064;-71
2022/01/01 00:43:00;;;;;;;78.18;29.52;;;10.80;99.90;;;;;;4997708;28;20070;-72
2022/01/01 00:45:26;;;;;;;73.82;29.30;;;10.90;99.90;;;;;;4997787;28;20493;-69
2022/01/01 00:47:51;;;;;;;85.43;31.48;;;10.80;99.90;;;;;;5015324;28;20074;-71
2022/01/01 00:50:17;;;;;;;69.60;29.92;;;10.70;99.90;;;;;;4998211;28;20057;-71
2022/01/01 00:52:44;;;;;;;78.68;30.85;;;10.80;99.90;;;;;;4997742;28;20064;-69
2022/01/01 00:55:10;;;;;;;76.75;31.25;;;10.80;99.90;;;;;;5015021;28;20046;-71
2022/01/01 00:57:36;;;;;;;82.45;32.33;;;10.70;99.90;;;;;;5015281;28;20406;-71
2022/01/01 01:00:04;;;;;;;84.63;29.92;;;10.70;99.90;;;;;;4998243;28;20132;-71
2022/01/01 01:02:31;;;;;;;84.00;27.45;;;10.70;99.90;;;;;;4998128;28;20050;-70
2022/01/01 01:04:57;;;;;;;80.63;27.55;;;10.70;99.90;;;;;;4997936;28;20068;-72
2022/01/01 01:07:23;;;;;;;77.15;26.92;;;10.60;99.90;;;;;;5014961;28;20049;-72
2022/01/01 01:09:49;;;;;;;82.78;27.40;;;10.60;99.90;;;;;;4997797;28;20153;-71
2022/01/01 01:12:20;;;;;;;66.43;24.10;;;10.60;99.90;;;;;;5015007;28;20046;-72
2022/01/01 01:14:46;;;;;;;77.45;25.15;;;10.50;99.90;;;;;;5015099;28;20093;-71
2022/01/01 01:17:12;;;;;;;66.13;26.08;;;10.50;99.90;;;;;;4997383;28;20493;-70
2022/01/01 01:19:38;;;;;;;76.95;22.55;;;10.50;99.90;;;;;;5014800;28;20042;-71
2022/01/01 01:22:04;;;;;;;67.53;22.15;;;10.40;99.90;;;;;;5015091;28;20539;-71
2022/01/01 01:24:29;;;;;;;76.53;22.25;;;10.40;99.90;;;;;;4997708;28;20093;-71
2022/01/01 01:27:00;;;;;;;68.40;23.23;;;10.40;99.90;;;;;;4998317;28;20050;-71
2022/01/01 01:29:25;;;;;;;70.05;24.65;;;10.30;99.90;;;;;;4997687;28;20042;-70
2022/01/01 01:31:51;;;;;;;74.97;21.95;;;10.30;99.90;;;;;;5014824;28;20052;-70
2022/01/01 01:34:17;;;;;;;69.93;22.90;;;10.30;99.90;;;;;;4998014;28;20050;-70
2022/01/01 01:36:42;;;;;;;74.45;23.38;;;10.40;99.90;;;;;;4996514;28;20050;-72
2022/01/01 01:39:08;;;;;;;78.68;26.35;;;10.40;99.90;;;;;;5015333;28;20049;-71
2022/01/01 01:41:34;;;;;;;82.60;26.73;;;10.30;99.90;;;;;;5016047;28;20052;-69
2022/01/01 01:44:02;;;;;;;86.38;30.08;;;10.40;99.90;;;;;;5000814;28;20060;-72
2022/01/01 01:46:28;;;;;;;80.40;28.40;;;10.40;99.90;;;;;;4985259;28;20208;-69
2022/01/01 01:48:55;;;;;;;91.90;32.83;;;10.40;99.90;;;;;;5018498;28;20176;-70
2022/01/01 01:51:21;;;;;;;106.88;36.15;;;10.40;99.90;;;;;;5018262;28;20421;-71
2022/01/01 01:53:46;;;;;;;103.13;37.05;;;10.40;99.90;;;;;;5018145;28;20081;-72
2022/01/01 01:56:12;;;;;;;109.85;38.92;;;10.50;99.90;;;;;;5001650;28;20081;-72
2022/01/01 01:58:38;;;;;;;107.57;40.22;;;10.50;99.90;;;;;;5001039;28;20049;-70
2022/01/01 02:03:29;;;;;;;104.07;40.15;;;10.50;99.90;;;;;;5017851;28;20053;-71
2022/01/01 02:05:56;;;;;;;96.38;40.05;;;10.50;99.90;;;;;;5017638;28;20042;-71
2022/01/01 02:08:21;;;;;;;124.15;44.15;;;10.50;99.90;;;;;;5000828;28;20089;-74
2022/01/01 02:10:51;;;;;;;105.97;43.03;;;10.50;99.90;;;;;;5018243;28;20100;-70
2022/01/01 02:13:32;;;;;;;113.55;42.13;;;10.50;99.90;;;;;;5017816;28;20045;-72
2022/01/01 02:18:24;;;;;;;123.60;45.15;;;10.60;99.90;;;;;;5000322;28;20485;-72
2022/01/01 02:20:50;;;;;;;119.55;42.80;;;10.60;99.90;;;;;;5000269;28;20062;-71
2022/01/01 02:23:23;;;;;;;112.90;43.10;;;10.60;99.90;;;;;;5017569;28;20458;-70
2022/01/01 02:25:49;;;;;;;;;;;10.60;99.90;;;;;;5001048;28;20085;-70
2022/01/01 02:28:15;;;;;;;112.68;44.50;;;10.60;99.90;;;;;;5017298;28;20261;-70
2022/01/01 02:30:41;;;;;;;130.57;46.67;;;10.60;99.90;;;;;;5000669;28;20038;-71
2022/01/01 02:33:07;;;;;;;119.57;46.13;;;10.60;99.90;;;;;;4999985;28;20080;-70
2022/01/01 02:35:32;;;;;;;130.20;46.38;;;10.70;99.90;;;;;;5000837;28;20046;-70
2022/01/01 02:37:58;;;;;;;112.20;47.40;;;10.70;99.90;;;;;;5000894;28;20476;-70
2022/01/01 02:40:24;;;;;;;122.20;47.92;;;10.70;99.90;;;;;;5017581;28;20052;-69
2022/01/01 02:42:51;;;;;;;106.65;46.90;;;10.70;99.90;;;;;;5017491;28;20044;-71
2022/01/01 02:45:17;;;;;;;123.97;48.35;;;10.70;99.90;;;;;;5017327;28;20050;-70
2022/01/01 02:47:42;;;;;;;115.18;47.35;;;10.70;99.90;;;;;;4999466;28;20498;-70
2022/01/01 02:50:10;;;;;;;117.28;46.35;;;10.70;99.90;;;;;;5017550;28;20458;-71
2022/01/01 02:52:36;;;;;;;111.57;45.30;;;10.80;99.90;;;;;;5016928;28;20470;-73
2022/01/01 02:55:03;;;;;;;114.65;45.63;;;10.70;99.90;;;;;;4999427;28;20062;-70
2022/01/01 02:57:29;;;;;;;109.25;48.00;;;10.70;99.90;;;;;;4999567;28;20046;-72
2022/01/01 02:59:55;;;;;;;115.30;45.83;;;10.70;99.90;;;;;;5000096;28;20045;-70
2022/01/01 03:02:21;;;;;;;110.10;45.88;;;10.70;99.90;;;;;;4999861;28;20480;-74
2022/01/01 03:04:46;;;;;;;114.22;46.88;;;10.70;99.90;;;;;;4999974;28;20092;-72
2022/01/01 03:07:12;;;;;;;100.97;45.10;;;10.70;99.90;;;;;;4999748;28;20077;-69
2022/01/01 03:09:38;;;;;;;109.93;46.35;;;10.70;99.90;;;;;;5017255;28;20045;-70
2022/01/01 03:12:09;;;;;;;110.30;47.78;;;10.70;99.90;;;;;;5016840;28;20453;-71
2022/01/01 03:14:36;;;;;;;113.68;47.05;;;10.70;99.90;;;;;;5016904;28;20046;-72
2022/01/01 03:17:02;;;;;;;123.32;49.38;;;10.70;99.90;;;;;;5016577;28;20041;-69
2022/01/01 03:19:28;;;;;;;116.93;46.22;;;10.70;99.90;;;;;;4998400;28;20046;-72
2022/01/01 03:21:53;;;;;;;117.45;49.13;;;10.70;99.90;;;;;;4999103;28;20064;-69
2022/01/01 03:24:20;;;;;;;112.18;46.80;;;10.70;99.90;;;;;;4999262;28;20129;-70
2022/01/01 03:26:46;;;;;;;111.20;47.75;;;10.70;99.90;;;;;;4999471;28;20485;-72
2022/01/01 03:29:11;;;;;;;108.05;47.75;;;10.70;99.90;;;;;;4998917;28;20057;-71
2022/01/01 03:31:37;;;;;;;105.45;48.75;;;10.80;99.90;;;;;;4999176;28;20045;-72
2022/01/01 03:34:03;;;;;;;125.03;49.78;;;10.80;99.90;;;;;;4999919;28;20077;-69
2022/01/01 03:36:28;;;;;;;113.82;50.03;;;10.70;99.90;;;;;;4999733;28;20058;-69
2022/01/01 03:38:55;;;;;;;116.55;49.08;;;10.70;99.90;;;;;;4999182;28;20104;-73
2022/01/01 03:41:20;;;;;;;118.15;50.92;;;10.70;99.90;;;;;;5016469;28;20120;-73
2022/01/01 03:43:46;;;;;;;110.78;51.50;;;10.70;99.90;;;;;;4998862;28;20049;-69
2022/01/01 03:46:12;;;;;;;115.68;52.35;;;10.70;99.90;;;;;;4998817;28;20353;-73
2022/01/01 03:48:38;;;;;;;125.90;55.08;;;10.70;99.90;;;;;;4998223;28;20123;-70
2022/01/01 03:51:03;;;;;;;120.70;55.42;;;10.70;99.90;;;;;;4999133;28;20133;-71
2022/01/01 03:53:29;;;;;;;123.60;53.50;;;10.70;99.90;;;;;;4998631;28;20516;-69
2022/01/01 03:55:55;;;;;;;129.15;56.05;;;10.70;99.90;;;;;;4998691;28;20440;-71
2022/01/01 03:58:20;;;;;;;134.20;56.58;;;10.70;99.90;;;;;;4998901;28;20050;-70
2022/01/01 04:00:46;;;;;;;120.57;56.03;;;10.70;99.90;;;;;;4998512;28;20081;-70
2022/01/01 04:03:16;;;;;;;134.98;59.38;;;10.70;99.90;;;;;;4998133;28;20089;-72
2022/01/01 04:05:41;;;;;;;131.02;56.72;;;10.70;99.90;;;;;;5015440;28;20042;-70
2022/01/01 04:08:08;;;;;;;128.43;59.00;;;10.70;99.90;;;;;;5015877;28;20056;-70
2022/01/01 04:10:35;;;;;;;134.15;59.92;;;10.70;99.90;;;;;;4998575;28;20054;-71
2022/01/01 04:13:02;;;;;;;130.52;60.72;;;10.70;99.90;;;;;;5015777;28;20151;-71
2022/01/01 04:15:29;;;;;;;144.25;61.97;;;10.60;99.90;;;;;;4998116;28;20066;-71
2022/01/01 04:18:00;;;;;;;129.82;59.65;;;10.60;99.90;;;;;;5015098;28;20046;-72
2022/01/01 04:20:27;;;;;;;143.70;62.55;;;10.60;99.90;;;;;;4998250;28;20132;-73
2022/01/01 04:22:54;;;;;;;130.45;62.42;;;10.60;99.90;;;;;;5015642;28;20054;-71
2022/01/01 04:25:20;;;;;;;131.52;63.20;;;10.60;99.90;;;;;;5015784;28;20358;-72
2022/01/01 04:27:49;;;;;;;141.93;65.93;;;10.60;99.90;;;;;;5015710;28;20057;-70
2022/01/01 04:30:15;;;;;;;145.52;67.03;;;10.60;99.90;;;;;;4997899;28;20461;-69
2022/01/01 04:32:41;;;;;;;144.27;66.43;;;10.70;99.90;;;;;;4998752;28;20108;-71
2022/01/01 04:35:07;;;;;;;141.45;66.20;;;10.70;99.90;;;;;;5015393;28;20374;-71
2022/01/01 04:37:33;;;;;;;142.43;65.07;;;10.70;99.90;;;;;;4998515;28;20038;-71
2022/01/01 04:39:59;;;;;;;135.98;64.05;;;10.60;99.90;;;;;;5015622;28;20119;-69
2022/01/01 04:42:26;;;;;;;144.10;67.32;;;10.60;99.90;;;;;;4997766;28;20041;-70
2022/01/01 04:44:52;;;;;;;135.07;64.25;;;10.70;99.90;;;;;;4998075;28;20479;-70
2022/01/01 04:47:18;;;;;;;140.00;65.10;;;10.70;99.90;;;;;;4997569;28;20116;-69
2022/01/01 04:49:43;;;;;;;130.80;62.83;;;10.70;99.90;;;;;;4997873;28;20466;-71
2022/01/01 04:52:09;;;;;;;134.20;61.22;;;10.70;99.90;;;;;;4997963;28;20053;-69
2022/01/01 04:54:39;;;;;;;145.90;62.97;;;10.70;99.90;;;;;;4998197;28;20141;-71
2022/01/01 04:57:04;;;;;;;144.63;63.70;;;10.70;99.90;;;;;;5015279;28;20052;-72
2022/01/01 04:59:30;;;;;;;128.07;62.08;;;10.70;99.90;;;;;;5015464;28;20378;-69
2022/01/01 05:01:56;;;;;;;141.98;63.15;;;10.70;99.90;;;;;;4982263;28;20159;-71
2022/01/01 05:04:22;;;;;;;145.68;64.15;;;10.70;99.90;;;;;;4998281;28;20191;-72
2022/01/01 05:06:49;;;;;;;133.82;63.08;;;10.60;99.90;;;;;;5015278;28;20103;-71
2022/01/01 05:09:16;;;;;;;142.32;66.05;;;10.70;99.90;;;;;;4997637;28;20042;-71
2022/01/01 05:11:42;;;;;;;134.13;67.75;;;10.70;99.90;;;;;;4997375;28;20049;-72
2022/01/01 05:14:08;;;;;;;147.20;66.75;;;10.70;99.90;;;;;;4998047;28;20144;-71
2022/01/01 05:16:33;;;;;;;150.60;68.75;;;10.70;99.90;;;;;;4999293;28;20081;-72
2022/01/01 05:18:59;;;;;;;137.90;69.55;;;10.70;99.90;;;;;;4985343;28;20057;-70
2022/01/01 05:21:25;;;;;;;144.98;68.55;;;10.70;99.90;;;;;;5001397;28;20054;-69
2022/01/01 05:23:50;;;;;;;155.23;70.57;;;10.60;99.90;;;;;;5001523;28;20125;-70
2022/01/01 05:26:16;;;;;;;146.20;69.75;;;10.70;99.90;;;;;;5001455;28;20061;-72
2022/01/01 05:28:44;;;;;;;141.15;68.88;;;10.70;99.90;;;;;;5001633;28;20081;-70
2022/01/01 05:31:09;;;;;;;161.38;72.63;;;10.70;99.90;;;;;;5018640;28;20053;-72
2022/01/01 05:33:35;;;;;;;147.93;68.30;;;10.70;99.90;;;;;;5018630;28;20053;-70
2022/01/01 05:36:00;;;;;;;145.32;67.35;;;10.70;99.90;;;;;;5001442;28;20056;-70
2022/01/01 05:38:26;;;;;;;149.20;65.68;;;10.60;99.90;;;;;;4985280;28;20089;-72
2022/01/01 05:40:51;;;;;;;144.85;68.93;;;10.70;99.90;;;;;;5018527;28;20089;-70
2022/01/01 05:43:17;;;;;;;144.73;65.50;;;10.70;99.90;;;;;;5018779;28;20049;-71
2022/01/01 05:45:43;;;;;;;150.80;65.40;;;10.70;99.90;;;;;;5001839;28;20350;-71
2022/01/01 05:48:10;;;;;;;151.52;66.82;;;10.70;99.90;;;;;;5000914;28;20083;-72
2022/01/01 05:50:36;;;;;;;146.93;67.03;;;10.70;99.90;;;;;;5018678;28;20045;-70
2022/01/01 05:53:02;;;;;;;152.73;64.43;;;10.70;99.90;;;;;;5000966;28;20111;-71
2022/01/01 05:55:27;;;;;;;143.93;62.25;;;10.70;99.90;;;;;;5000917;28;20425;-73
2022/01/01 05:57:53;;;;;;;151.45;63.22;;;10.70;99.90;;;;;;5001516;28;20050;-71
2022/01/01 06:00:18;;;;;;;153.93;61.03;;;10.70;99.90;;;;;;5001472;28;20102;-69
2022/01/01 06:02:44;;;;;;;126.97;55.80;;;10.70;99.90;;;;;;5018138;28;20143;-71
2022/01/01 06:05:10;;;;;;;135.60;56.03;;;10.70;99.90;;;;;;5000782;28;20042;-71
2022/01/01 06:07:36;;;;;;;124.70;53.65;;;10.80;99.90;;;;;;5018204;28;20042;-69
2022/01/01 06:10:03;;;;;;;140.98;53.58;;;10.80;99.90;;;;;;5000498;28;20042;-70
2022/01/01 06:12:29;;;;;;;126.30;50.40;;;10.80;99.90;;;;;;5001251;28;20120;-71
2022/01/01 06:14:54;;;;;;;121.22;45.15;;;10.70;99.90;;;;;;5000627;28;20054;-72
2022/01/01 06:17:20;;;;;;;116.97;41.92;;;10.80;99.90;;;;;;5000784;28;20060;-70
2022/01/01 06:19:45;;;;;;;105.40;39.67;;;10.80;99.90;;;;;;5000514;28;20101;-71
2022/01/01 06:22:11;;;;;;;109.88;38.63;;;10.80;99.90;;;;;;5017869;28;20054;-71
2022/01/01 06:24:36;;;;;;;104.43;36.45;;;10.80;99.90;;;;;;5000650;28;20428;-70
2022/01/01 06:27:02;;;;;;;114.97;38.13;;;10.80;99.90;;;;;;5000755;28;20088;-71
2022/01/01 06:29:28;;;;;;;115.90;38.72;;;10.70;99.90;;;;;;5000222;28;20476;-70
2022/01/01 06:31:54;;;;;;;135.23;39.40;;;10.70;99.90;;;;;;5017671;28;20057;-70
2022/01/01 06:34:19;;;;;;;124.10;37.85;;;10.70;99.90;;;;;;5017764;28;20448;-72
2022/01/01 06:36:45;;;;;;;122.22;38.03;;;10.70;99.90;;;;;;5000587;28;20358;-70
2022/01/01 06:39:10;;;;;;;113.80;37.03;;;10.70;99.90;;;;;;5017609;28;20099;-69
2022/01/01 06:41:36;;;;;;;110.50;35.88;;;10.70;99.90;;;;;;5017517;28;20054;-69
2022/01/01 06:44:02;;;;;;;112.53;37.20;;;10.70;99.90;;;;;;5017650;28;20046;-70
2022/01/01 06:46:27;;;;;;;122.38;37.58;;;10.70;99.90;;;;;;5000718;28;20072;-71
2022/01/01 06:48:53;;;;;;;136.20;38.40;;;10.70;99.90;;;;;;4983566;28;20072;-70
2022/01/01 06:51:19;;;;;;;120.65;36.80;;;10.70;99.90;;;;;;5000098;28;20053;-70
2022/01/01 06:53:44;;;;;;;124.40;37.60;;;10.70;99.90;;;;;;4999911;28;20139;-71
2022/01/01 06:56:10;;;;;;;110.28;35.35;;;10.70;99.90;;;;;;5000078;28;20049;-69
2022/01/01 06:58:36;;;;;;;119.20;37.25;;;10.70;99.90;;;;;;5017427;28;20100;-70
2022/01/01 07:01:03;;;;;;;115.95;37.88;;;10.80;99.90;;;;;;5000079;28;20046;-71
2022/01/01 07:03:28;;;;;;;142.85;38.55;;;10.70;99.90;;;;;;4999766;28;20054;-69
2022/01/01 07:05:54;;;;;;;128.07;36.85;;;10.80;99.90;;;;;;4999754;28;20100;-69
2022/01/01 07:08:20;;;;;;;120.60;35.85;;;10.80;99.90;;;;;;4999896;28;20512;-71
2022/01/01 07:10:46;;;;;;;126.80;36.67;;;10.80;99.90;;;;;;4999152;28;20053;-71
2022/01/01 07:13:12;;;;;;;115.07;34.22;;;10.80;99.90;;;;;;5016939;28;20053;-71
2022/01/01 07:15:38;;;;;;;115.15;34.90;;;10.80;99.90;;;;;;5016970;28;20420;-72
2022/01/01 07:18:03;;;;;;;104.28;33.53;;;10.80;99.90;;;;;;5016190;28;20049;-70
2022/01/01 07:20:29;;;;;;;107.75;34.42;;;10.80;99.90;;;;;;4998941;28;20093;-72
2022/01/01 07:22:56;;;;;;;97.05;31.98;;;10.80;99.90;;;;;;4999233;28;20046;-69
2022/01/01 07:25:21;;;;;;;88.32;31.70;;;10.80;99.90;;;;;;5016379;28;20107;-69
2022/01/01 07:27:47;;;;;;;93.95;31.55;;;10.90;99.90;;;;;;4999690;28;20053;-71
2022/01/01 07:30:13;;;;;;;92.53;30.95;;;10.90;99.90;;;;;;5016221;28;20358;-71
2022/01/01 07:32:40;;;;;;;82.97;31.10;;;10.90;99.90;;;;;;5016538;28;20413;-71
2022/01/01 07:35:06;;;;;;;84.95;29.90;;;10.90;99.90;;;;;;4999067;28;20041;-72
2022/01/01 07:37:32;;;;;;;91.45;29.40;;;10.90;99.90;;;;;;4999141;28;20362;-70
2022/01/01 07:39:58;;;;;;;91.13;30.13;;;10.90;99.90;;;;;;5015277;28;20046;-69
2022/01/01 07:42:23;;;;;;;92.97;30.88;;;10.90;99.90;;;;;;4998976;28;20049;-72
2022/01/01 07:44:49;;;;;;;97.00;29.13;;;11.00;99.90;;;;;;4999305;28;20080;-70
2022/01/01 07:47:14;;;;;;;94.53;30.05;;;11.00;99.90;;;;;;5011974;28;20054;-72
2022/01/01 07:49:42;;;;;;;89.75;29.02;;;11.00;99.90;;;;;;5002988;28;20123;-70
2022/01/01 07:52:08;;;;;;;75.57;27.67;;;11.00;99.90;;;;;;4981366;28;20073;-74
2022/01/01 07:54:33;;;;;;;86.05;28.05;;;11.00;99.90;;;;;;5010450;28;20053;-71
2022/01/01 07:56:59;;;;;;;74.85;27.42;;;11.00;99.90;;;;;;4982431;28;20050;-69
2022/01/01 07:59:25;;;;;;;79.93;27.25;;;11.00;99.90;;;;;;5015598;28;20054;-72
2022/01/01 08:01:50;;;;;;;79.75;27.42;;;11.10;99.90;;;;;;5005521;28;20038;-70
2022/01/01 08:04:16;;;;;;;74.93;25.73;;;11.10;99.90;;;;;;4958736;28;20074;-70
2022/01/01 08:06:41;;;;;;;64.97;24.88;;;11.10;99.90;;;;;;4974249;28;20138;-69
2022/01/01 08:09:07;;;;;;;89.70;27.52;;;11.10;99.90;;;;;;4973947;28;20074;-69
2022/01/01 08:11:32;;;;;;;74.35;26.55;;;11.10;99.90;;;;;;4958248;28;20057;-71
2022/01/01 08:13:58;;;;;;;77.07;27.40;;;11.20;99.90;;;;;;4958336;28;20146;-71
2022/01/01 08:16:23;;;;;;;73.18;28.52;;;11.20;99.90;;;;;;4958366;28;20423;-71
2022/01/01 08:18:49;;;;;;;77.05;28.60;;;11.20;99.90;;;;;;4973325;28;20066;-71
2022/01/01 08:21:15;;;;;;;74.53;30.55;;;11.20;99.90;;;;;;4966366;28;20118;-70
2022/01/01 08:23:41;;;;;;;77.13;29.55;;;11.20;99.90;;;;;;4954402;28;20057;-72
2022/01/01 08:26:06;;;;;;;87.38;30.77;;;11.20;99.90;;;;;;4958457;28;20063;-70
2022/01/01 08:28:32;;;;;;;74.05;30.40;;;11.30;99.90;;;;;;4943287;29;20067;-70
2022/01/01 08:30:57;;;;;;;78.65;32.20;;;11.30;99.90;;;;;;4943957;29;20052;-71
2022/01/01 08:33:23;;;;;;;81.97;33.67;;;11.30;99.90;;;;;;4928881;29;20078;-70
2022/01/01 08:35:48;;;;;;;96.45;33.63;;;11.40;99.90;;;;;;4983644;28;20376;-69
2022/01/01 08:38:15;;;;;;;98.05;34.25;;;11.40;99.90;;;;;;4977437;28;20042;-72
2022/01/01 08:40:41;;;;;;;99.88;34.13;;;11.40;99.90;;;;;;4983893;28;20066;-69
2022/01/01 08:43:07;;;;;;;101.25;35.72;;;11.40;99.90;;;;;;4994688;28;20357;-71
2022/01/01 08:45:37;;;;;;;83.72;33.78;;;11.40;99.90;;;;;;4995643;28;20046;-70
2022/01/01 08:48:03;;;;;;;97.63;36.05;;;11.40;99.90;;;;;;4978566;28;20397;-73
2022/01/01 08:50:28;;;;;;;94.75;35.97;;;11.40;99.90;;;;;;4977997;28;20133;-71
2022/01/01 08:52:54;;;;;;;112.05;36.83;;;11.40;99.90;;;;;;4995518;28;20043;-72
2022/01/01 08:55:19;;;;;;;94.45;34.88;;;11.40;99.90;;;;;;4960314;28;20129;-71
2022/01/01 08:57:45;;;;;;;93.80;35.22;;;11.50;99.90;;;;;;4959387;28;20082;-70
2022/01/01 09:00:11;;;;;;;98.05;34.75;;;11.50;99.90;;;;;;4959500;28;20046;-71
2022/01/01 09:02:37;;;;;;;97.47;34.80;;;11.50;99.90;;;;;;4959327;28;20054;-70
2022/01/01 09:05:04;;;;;;;90.53;37.25;;;11.50;99.90;;;;;;4976173;28;20071;-70
2022/01/01 09:07:30;;;;;;;91.30;36.65;;;11.50;99.90;;;;;;4975793;28;20387;-69
2022/01/01 09:09:57;;;;;;;83.75;35.17;;;11.50;99.90;;;;;;4958628;28;20086;-73
2022/01/01 09:12:23;;;;;;;90.18;34.50;;;11.60;99.90;;;;;;4958906;28;20047;-71
2022/01/01 09:14:49;;;;;;;81.60;35.05;;;11.60;99.90;;;;;;4975797;28;20450;-70
2022/01/01 09:17:14;;;;;;;82.88;34.95;;;11.70;99.90;;;;;;4958622;28;20056;-70
2022/01/01 09:19:40;;;;;;;87.00;35.70;;;11.70;99.90;;;;;;4967552;28;20050;-75
2022/01/01 09:22:06;;;;;;;75.05;34.42;;;11.80;99.90;;;;;;5014744;28;20053;-71
2022/01/01 09:24:31;;;;;;;70.43;34.17;;;11.80;99.90;;;;;;4997203;28;20042;-69
2022/01/01 09:26:57;;;;;;;80.35;35.90;;;11.80;99.90;;;;;;5014732;28;20121;-71
2022/01/01 09:29:23;;;;;;;75.30;34.38;;;11.80;99.90;;;;;;4997835;28;20049;-70
2022/01/01 09:31:48;;;;;;;63.80;33.25;;;11.90;99.90;;;;;;5015010;28;20124;-69
2022/01/01 09:34:14;;;;;;;70.30;32.33;;;11.90;99.90;;;;;;4997311;28;20046;-69
2022/01/01 09:36:39;;;;;;;55.20;29.33;;;12.00;99.90;;;;;;4997146;28;20089;-70
2022/01/01 09:39:06;;;;;;;67.70;30.70;;;12.00;99.90;;;;;;4980928;28;20138;-71
2022/01/01 09:41:32;;;;;;;68.43;31.10;;;12.00;99.90;;;;;;5009225;28;20046;-74
2022/01/01 09:43:58;;;;;;;65.70;31.02;;;12.10;99.90;;;;;;4980784;28;20586;-72
2022/01/01 09:46:27;;;;;;;52.40;28.63;;;12.10;99.90;;;;;;4995198;28;20104;-69
2022/01/01 09:48:54;;;;;;;56.53;29.02;;;12.10;99.90;;;;;;4997687;28;20054;-70
2022/01/01 09:51:20;;;;;;;55.97;28.13;;;12.10;99.90;;;;;;4977797;28;20054;-70
2022/01/01 09:53:46;;;;;;;62.95;29.90;;;12.20;99.90;;;;;;4994807;28;20354;-70
2022/01/01 09:56:12;;;;;;;49.17;27.40;;;12.10;99.90;;;;;;4996646;28;20054;-73
2022/01/01 09:58:39;;;;;;;51.22;27.95;;;12.20;99.90;;;;;;4994174;28;20054;-70
2022/01/01 10:01:06;;;;;;;58.45;29.20;;;12.20;99.90;;;;;;4994532;28;20462;-72
2022/01/01 10:03:43;;;;;;;51.28;26.75;;;12.20;99.90;;;;;;4996855;28;20081;-71
2022/01/01 10:06:15;;;;;;;51.78;26.80;;;12.20;99.90;;;;;;4998145;28;20042;-70
2022/01/01 10:09:03;;;;;;;53.38;27.58;;;12.20;99.90;;;;;;4998219;28;20050;-72
2022/01/01 10:11:30;;;;;;;51.38;25.10;;;12.20;99.90;;;;;;4997452;28;20043;-71
2022/01/01 10:13:57;;;;;;;54.55;24.98;;;12.20;99.90;;;;;;4997434;28;20537;-72
2022/01/01 10:16:22;;;;;;;48.95;24.75;;;12.20;99.90;;;;;;4997233;28;20136;-72
2022/01/01 10:18:53;;;;;;;47.15;25.83;;;12.20;99.90;;;;;;5007062;28;20477;-71
2022/01/01 10:21:26;;;;;;;53.35;25.98;;;12.20;99.90;;;;;;5017673;28;20141;-74
2022/01/01 10:23:55;;;;;;;47.08;24.70;;;12.30;99.90;;;;;;5017766;28;20076;-71
2022/01/01 10:29:11;;;;;;;48.03;26.20;;;12.30;99.90;;;;;;5017879;28;20100;-71
2022/01/01 10:31:39;;;;;;;48.90;25.48;;;12.30;99.90;;;;;;5000132;28;20085;-73
2022/01/01 10:34:14;;;;;;;45.90;25.15;;;12.30;99.90;;;;;;5000698;28;20065;-72
2022/01/01 10:36:44;;;;;;;45.47;24.70;;;12.30;99.90;;;;;;5017455;28;20488;-70
2022/01/01 10:39:11;;;;;;;52.03;23.83;;;12.30;99.90;;;;;;5000199;28;20114;-70
2022/01/01 10:41:45;;;;;;;46.47;23.48;;;12.30;99.90;;;;;;5017723;28;20173;-72
2022/01/01 10:44:12;;;;;;;41.95;22.42;;;12.30;99.90;;;;;;5017347;28;20358;-71
2022/01/01 10:46:38;;;;;;;41.90;21.77;;;12.30;99.90;;;;;;5017435;28;20053;-70
2022/01/01 10:49:33;;;;;;;49.17;22.77;;;12.30;99.90;;;;;;4999729;28;20072;-72
2022/01/01 10:52:23;;;;;;;45.78;22.63;;;12.30;99.90;;;;;;5017473;28;20053;-70
2022/01/01 10:54:56;;;;;;;41.53;20.15;;;12.30;99.90;;;;;;5000299;28;20108;-73
2022/01/01 10:57:33;;;;;;;45.15;21.20;;;12.30;99.90;;;;;;5000135;28;20056;-71
2022/01/01 11:00:24;;;;;;;39.63;19.52;;;12.30;99.90;;;;;;5016898;28;20046;-71
2022/01/01 11:02:58;;;;;;;39.10;19.77;;;12.30;99.90;;;;;;4999779;28;20129;-71
2022/01/01 11:05:28;;;;;;;45.20;21.55;;;12.30;99.90;;;;;;5016870;28;20097;-71
2022/01/01 11:07:54;;;;;;;34.33;19.55;;;12.30;99.90;;;;;;5016885;28;20050;-69
2022/01/01 11:10:21;;;;;;;38.40;19.50;;;12.40;99.90;;;;;;5016948;28;20054;-70
2022/01/01 11:12:48;;;;;;;37.25;17.67;;;12.40;99.90;;;;;;5016584;28;20386;-72
2022/01/01 11:15:14;;;;;;;37.85;18.08;;;12.40;99.90;;;;;;5017100;28;20046;-71
2022/01/01 11:17:41;;;;;;;34.85;16.45;;;12.50;99.90;;;;;;5016467;28;20058;-72
2022/01/01 11:20:07;;;;;;;33.72;16.08;;;12.50;99.90;;;;;;4998694;28;20390;-72
2022/01/01 11:22:33;;;;;;;35.45;15.68;;;12.50;99.90;;;;;;5016560;28;20072;-72
2022/01/01 11:25:00;;;;;;;33.65;15.75;;;12.50;99.90;;;;;;4999351;28;20463;-70
2022/01/01 11:27:27;;;;;;;33.55;15.07;;;12.50;99.90;;;;;;5016361;28;20137;-72
2022/01/01 11:29:56;;;;;;;31.95;14.45;;;12.50;99.90;;;;;;5016165;28;20440;-70
2022/01/01 11:32:27;;;;;;;32.78;14.75;;;12.50;99.90;;;;;;5016565;28;20405;-72
2022/01/01 11:34:54;;;;;;;31.98;13.82;;;12.50;99.90;;;;;;5016404;28;20151;-74
2022/01/01 11:37:22;;;;;;;33.33;13.70;;;12.50;99.90;;;;;;5016016;28;20060;-71
2022/01/01 11:39:54;;;;;;;33.53;15.23;;;12.50;99.90;;;;;;4999122;28;20546;-72
2022/01/01 11:42:21;;;;;;;27.75;11.82;;;12.50;99.90;;;;;;4999093;28;20148;-71
2022/01/01 11:44:52;;;;;;;25.85;11.52;;;12.50;99.90;;;;;;5015928;28;20054;-71
2022/01/01 11:47:23;;;;;;;20.45;11.52;;;12.50;99.90;;;;;;5015577;28;20058;-71
2022/01/01 11:49:51;;;;;;;21.33;10.93;;;12.60;99.90;;;;;;4996677;28;20050;-71
2022/01/01 11:52:39;;;;;;;23.90;9.80;;;12.60;99.90;;;;;;4996382;28;20042;-72
2022/01/01 11:55:16;;;;;;;21.80;9.73;;;12.60;99.90;;;;;;4979628;28;20092;-72
2022/01/01 11:57:59;;;;;;;19.30;8.90;;;12.60;99.90;;;;;;4996426;28;20061;-70
2022/01/01 12:00:24;;;;;;;17.00;8.13;;;12.60;99.90;;;;;;4996462;28;20050;-71
2022/01/01 12:02:51;;;;;;;22.60;9.32;;;12.60;99.90;;;;;;4995247;28;20362;-70
2022/01/01 12:05:19;;;;;;;17.75;8.52;;;12.60;99.90;;;;;;4996064;28;20117;-72
2022/01/01 12:07:48;;;;;;;20.85;9.65;;;12.60;99.90;;;;;;4996129;28;20081;-71
2022/01/01 12:10:18;;;;;;;25.38;11.00;;;12.60;99.90;;;;;;4996243;28;20394;-70
2022/01/01 12:12:53;;;;;;;21.17;8.27;;;12.60;99.90;;;;;;4996452;28;20120;-71
2022/01/01 12:15:26;;;;;;;18.00;9.20;;;12.60;99.90;;;;;;4979396;28;20150;-72
2022/01/01 12:18:08;;;;;;;16.67;8.23;;;12.60;99.90;;;;;;5001852;28;20111;-71
2022/01/01 12:20:36;;;;;;;20.60;7.90;;;12.60;99.90;;;;;;5015508;28;20280;-70
2022/01/01 12:23:11;;;;;;;21.75;8.38;;;12.60;99.90;;;;;;4998434;28;20089;-72
2022/01/01 12:25:38;;;;;;;17.85;8.27;;;12.60;99.90;;;;;;5015107;28;20050;-70
2022/01/01 12:28:08;;;;;;;18.98;7.93;;;12.60;99.90;;;;;;5015801;28;20446;-71
2022/01/01 12:30:48;;;;;;;13.95;7.47;;;12.60;99.90;;;;;;5015331;28;20057;-71